createdAt,value
2023-04-02T07:56:01.419Z,12927.7500
2023-04-02T07:57:03.368Z,12941.0771
2023-04-02T07:58:05.164Z,12922.7695
2023-04-02T07:59:07.067Z,12923.2305
2023-04-02T08:00:58.267Z,12947.0000
2023-04-02T08:07:21.010Z,13253.8457
2023-04-02T08:08:22.905Z,13104.1543
2023-04-02T08:09:24.810Z,13171.8457
2023-04-02T08:10:26.718Z,13209.2305
2023-04-02T08:11:29.758Z,13216.0771
2023-04-02T08:12:30.543Z,13217.3076
2023-04-02T08:13:32.456Z,13177.0771
2023-04-02T08:14:34.368Z,13121.5381
2023-04-02T08:15:36.620Z,13084.4619
2023-04-02T08:16:38.225Z,13035.8457
2023-04-02T08:17:40.081Z,13013.3076
2023-04-02T08:18:42.071Z,13006.2305
2023-04-02T08:19:54.218Z,13005.6924
2023-04-02T08:20:45.816Z,13007.6152
2023-04-02T08:21:47.739Z,13019.7695
2023-04-02T08:22:49.660Z,13014.9229
2023-04-02T08:23:51.538Z,13018.5381
2023-04-02T08:24:53.469Z,13056.3848
2023-04-02T08:25:55.352Z,13027.3076
2023-04-02T08:26:57.273Z,13072.5381
2023-04-02T08:27:59.174Z,13076.7695
2023-04-02T08:29:01.110Z,13061.5381
2023-04-02T08:30:02.994Z,13039.8457
2023-04-02T08:31:05.054Z,13041.0000
2023-04-02T08:32:06.794Z,13061.7695
2023-04-02T08:33:08.778Z,13028.3848
2023-04-02T08:34:10.633Z,12997.7695
2023-04-02T08:35:13.685Z,12975.5381
2023-04-02T08:36:14.488Z,12953.8457
2023-04-02T08:37:16.359Z,12953.3076
2023-04-02T08:38:18.253Z,12869.4619
2023-04-02T08:39:20.187Z,12837.9229
2023-04-02T08:40:22.085Z,12854.0771
2023-04-02T08:41:24.008Z,13042.0000
2023-04-02T08:42:25.930Z,13272.9229
2023-04-02T08:43:27.882Z,13406.3076
2023-04-02T08:44:29.707Z,13534.9229
2023-04-02T08:45:31.647Z,13591.0000
2023-04-02T08:46:33.539Z,13636.8457
2023-04-02T08:47:35.472Z,13678.0000
2023-04-02T08:48:37.326Z,13711.6152
2023-04-02T08:49:39.329Z,13833.4619
2023-04-02T08:50:41.145Z,13887.1543
2023-04-02T08:51:43.101Z,13891.1543
2023-04-02T08:52:44.953Z,13971.5381
2023-04-02T08:53:46.879Z,14022.2305
2023-04-02T08:54:48.759Z,14024.9229
2023-04-02T08:55:50.682Z,14059.0771
2023-04-02T08:56:52.621Z,13475.6924
2023-04-02T08:57:54.507Z,13197.0771
2023-04-02T08:58:56.440Z,13297.1543
2023-04-02T08:59:58.337Z,13449.9229
2023-04-02T09:01:00.225Z,13397.5381
2023-04-02T09:02:02.268Z,13351.4619
2023-04-02T09:03:04.061Z,13370.3848
2023-04-02T09:04:05.953Z,13376.0771
2023-04-02T09:05:08.020Z,13365.4619
2023-04-02T09:06:10.781Z,13362.1543
2023-04-02T09:07:11.670Z,13352.9229
2023-04-02T09:08:13.594Z,13350.6924
2023-04-02T09:09:15.468Z,13352.9229
2023-04-02T09:10:17.432Z,13349.5381
2023-04-02T09:11:19.312Z,13343.3848
2023-04-02T09:12:21.215Z,13342.4619
2023-04-02T09:13:23.102Z,13339.0771
2023-04-02T09:14:25.021Z,13332.3848
2023-04-02T09:15:26.918Z,13331.8457
2023-04-02T09:16:28.938Z,13325.9229
2023-04-02T09:17:36.913Z,13319.4619
2023-04-02T09:18:32.665Z,13315.8457
2023-04-02T09:19:34.545Z,13309.8457
2023-04-02T09:20:36.473Z,13307.7695
2023-04-02T09:21:38.379Z,13304.6152
2023-04-02T09:22:40.284Z,13300.5381
2023-04-02T09:23:42.168Z,13297.1543
2023-04-02T09:24:44.106Z,13293.9229
2023-04-02T09:25:54.125Z,13288.0000
2023-04-02T09:26:47.915Z,13289.5381
2023-04-02T09:27:49.799Z,13287.5381
2023-04-02T09:28:51.735Z,13281.8457
2023-04-02T09:29:53.625Z,13279.6924
2023-04-02T09:30:55.552Z,13282.4619
2023-04-02T09:31:57.480Z,13280.2305
2023-04-02T09:32:59.398Z,13272.6152
2023-04-02T09:34:01.260Z,13271.7695
2023-04-02T09:35:07.465Z,13271.3848
2023-04-02T09:36:05.098Z,13271.2305
2023-04-02T09:37:07.018Z,13268.9229
2023-04-02T09:38:08.879Z,13265.5381
2023-04-02T09:39:10.815Z,13256.1543
2023-04-02T09:40:12.704Z,13260.8457
2023-04-02T09:41:14.643Z,13261.3076
2023-04-02T09:42:16.554Z,13260.2305
2023-04-02T09:43:18.954Z,13255.9229
2023-04-02T09:44:20.336Z,13256.4619
2023-04-02T09:45:22.306Z,13247.6924
2023-04-02T09:46:24.270Z,13250.3848
2023-04-02T09:47:26.130Z,13251.3848
2023-04-02T09:48:27.977Z,13248.1543
2023-04-02T09:49:29.930Z,13246.0771
2023-04-02T09:50:31.808Z,13246.1543
2023-04-02T09:51:33.745Z,13244.0000
2023-04-02T09:52:35.616Z,13242.3076
2023-04-02T09:53:37.552Z,13242.3848
2023-04-02T09:54:39.434Z,13247.6924
2023-04-02T09:55:41.356Z,13242.0000
2023-04-02T09:56:43.274Z,13246.0771
2023-04-02T09:57:45.185Z,13245.3076
2023-04-02T09:58:47.080Z,13235.1543
2023-04-02T09:59:49.017Z,13241.8457
2023-04-02T10:00:50.914Z,13238.7695
2023-04-02T10:01:52.835Z,13233.4619
2023-04-02T10:02:54.754Z,13234.6924
2023-04-02T10:03:56.720Z,13239.1543
2023-04-02T10:04:58.521Z,13233.3848
2023-04-02T10:06:00.489Z,13229.1543
2023-04-02T10:07:02.358Z,13230.3848
2023-04-02T10:08:04.280Z,13230.7695
2023-04-02T10:09:06.158Z,13228.0000
2023-04-02T10:10:08.076Z,13227.9229
2023-04-02T10:11:10.002Z,13224.8457
2023-04-02T10:12:11.891Z,13221.9229
2023-04-02T10:13:13.810Z,13221.6152
2023-04-02T10:14:15.749Z,13224.0771
2023-04-02T10:15:17.617Z,13222.5381
2023-04-02T10:16:19.637Z,13222.4619
2023-04-02T10:17:22.484Z,13221.6924
2023-04-02T10:18:23.368Z,13219.1543
2023-04-02T10:19:25.261Z,13219.0000
2023-04-02T10:20:27.201Z,13219.0000
2023-04-02T10:21:29.067Z,13215.3848
2023-04-02T10:22:30.992Z,13213.4619
2023-04-02T10:23:32.880Z,13212.5381
2023-04-02T10:24:34.812Z,13212.5381
2023-04-02T10:25:36.903Z,13211.0000
2023-04-02T10:26:38.636Z,13211.2305
2023-04-02T10:27:40.534Z,13213.0000
2023-04-02T10:28:42.451Z,13214.5381
2023-04-02T10:29:44.339Z,13208.9229
2023-04-02T10:30:46.372Z,13207.9229
2023-04-02T10:31:48.150Z,13206.3848
2023-04-02T10:32:50.124Z,13212.4619
2023-04-02T10:33:51.973Z,13213.9229
2023-04-02T10:34:53.933Z,13206.8457
2023-04-02T10:35:55.812Z,13207.9229
2023-04-02T10:36:57.741Z,13201.2305
2023-04-02T10:37:59.608Z,13204.5381
2023-04-02T10:39:01.539Z,13199.6152
2023-04-02T10:40:03.428Z,13196.7695
2023-04-02T10:41:05.352Z,13196.0000
2023-04-02T10:42:07.241Z,13193.2305
2023-04-02T10:43:09.171Z,13194.9229
2023-04-02T10:44:19.603Z,13198.8457
2023-04-02T10:45:12.984Z,13198.9229
2023-04-02T10:46:14.906Z,13198.5381
2023-04-02T10:47:16.826Z,13194.0000
2023-04-02T10:48:18.694Z,13191.3848
2023-04-02T10:49:20.676Z,13196.9229
2023-04-02T10:50:22.524Z,13193.0771
2023-04-02T10:51:24.452Z,13190.2305
2023-04-02T10:52:26.417Z,13184.9229
2023-04-02T10:53:28.274Z,13188.5381
2023-04-02T10:54:30.165Z,13186.6924
2023-04-02T10:55:32.086Z,13187.6152
2023-04-02T10:56:44.042Z,13185.8457
2023-04-02T10:57:36.027Z,13190.3848
2023-04-02T10:58:37.784Z,13191.0771
2023-04-02T10:59:39.712Z,13192.0771
2023-04-02T11:00:41.601Z,13191.1543
2023-04-02T11:01:43.591Z,13189.8457
2023-04-02T11:02:45.500Z,13185.3076
2023-04-02T11:03:47.455Z,13184.7695
2023-04-02T11:04:49.251Z,13182.3848
2023-04-02T11:05:51.182Z,13179.8457
2023-04-02T11:06:58.096Z,13187.6152
2023-04-02T11:07:54.999Z,13188.0000
2023-04-02T11:08:56.885Z,13186.9229
2023-04-02T11:09:58.799Z,13179.3848
2023-04-02T11:11:01.822Z,13181.6152
2023-04-02T11:12:02.652Z,13183.5381
2023-04-02T11:13:04.537Z,13186.0771
2023-04-02T11:14:06.749Z,13184.8457
2023-04-02T11:15:08.341Z,13183.3076
2023-04-02T11:16:10.275Z,13180.6924
2023-04-02T11:17:12.141Z,13185.6152
2023-04-02T11:18:14.094Z,13181.9229
2023-04-02T11:19:15.996Z,13182.1543
2023-04-02T11:20:17.909Z,13178.5381
2023-04-02T11:21:19.807Z,13180.0771
2023-04-02T11:22:21.713Z,13180.4619
2023-04-02T11:23:23.668Z,13181.2305
2023-04-02T11:24:25.550Z,13182.0771
2023-04-02T11:25:27.425Z,13183.4619
2023-04-02T11:26:29.371Z,13184.2305
2023-04-02T11:27:31.265Z,13178.5381
2023-04-02T11:28:33.169Z,13180.7695
2023-04-02T11:29:35.383Z,13185.4619
2023-04-02T11:30:36.999Z,13182.2305
2023-04-02T11:31:38.960Z,13183.0771
2023-04-02T11:32:40.818Z,13182.0771
2023-04-02T11:33:45.370Z,13185.2305
2023-04-02T11:34:44.623Z,13189.4619
2023-04-02T11:35:46.603Z,13182.7695
2023-04-02T11:36:48.437Z,13186.3076
2023-04-02T11:37:52.340Z,13183.3076
2023-04-02T11:38:53.342Z,13185.3076
2023-04-02T11:39:54.140Z,13186.0000
2023-04-02T11:40:56.072Z,13182.2305
2023-04-02T11:41:57.984Z,13177.1543
2023-04-02T11:42:59.903Z,13182.0000
2023-04-02T11:44:01.771Z,13181.9229
2023-04-02T11:45:03.705Z,13181.3848
2023-04-02T11:46:05.618Z,13177.6152
2023-04-02T11:47:07.537Z,13181.1543
2023-04-02T11:48:09.431Z,13183.6924
2023-04-02T11:49:11.344Z,13180.1543
2023-04-02T11:50:13.226Z,13177.2305
2023-04-02T11:51:15.162Z,13176.6924
2023-04-02T11:52:17.045Z,13176.6924
2023-04-02T11:53:19.008Z,13174.3076
2023-04-02T11:54:20.880Z,13175.5381
2023-04-02T11:55:22.818Z,13173.6152
2023-04-02T11:56:24.708Z,13172.3848
2023-04-02T11:57:26.690Z,13176.1543
2023-04-02T11:58:28.501Z,13176.8457
2023-04-02T11:59:30.454Z,13174.0000
2023-04-02T12:00:32.344Z,13173.3076
2023-04-02T12:01:34.261Z,13174.6152
2023-04-02T12:02:36.206Z,13170.6924
2023-04-02T12:03:38.081Z,13170.6152
2023-04-02T12:04:39.980Z,13173.7695
2023-04-02T12:05:41.992Z,13173.7695
2023-04-02T12:06:43.792Z,13170.3076
2023-04-02T12:07:45.707Z,13172.5381
2023-04-02T12:08:57.156Z,13170.9229
2023-04-02T12:09:49.607Z,13173.7695
2023-04-02T12:10:51.485Z,13177.3848
2023-04-02T12:11:53.422Z,13173.6924
2023-04-02T12:12:55.297Z,13173.7695
2023-04-02T12:13:57.241Z,13174.3848
2023-04-02T12:14:59.144Z,13170.7695
2023-04-02T12:16:01.069Z,13173.6924
2023-04-02T12:17:02.996Z,13177.0000
2023-04-02T12:18:04.889Z,13176.6152
2023-04-02T12:19:06.755Z,13176.6152
2023-04-02T12:20:08.731Z,13176.0000
2023-04-02T12:21:10.585Z,13181.6924
2023-04-02T12:22:12.502Z,13178.3076
2023-04-02T12:23:14.393Z,13173.6924
2023-04-02T12:24:16.319Z,13174.9229
2023-04-02T12:25:18.215Z,13176.9229
2023-04-02T12:26:21.473Z,13178.4619
2023-04-02T12:27:23.046Z,13181.7695
2023-04-02T12:28:23.962Z,13173.8457
2023-04-02T12:29:25.835Z,13183.0000
2023-04-02T12:30:27.770Z,13175.3076
2023-04-02T12:31:29.775Z,13171.6152
2023-04-02T12:32:31.621Z,13174.0000
2023-04-02T12:33:33.517Z,13173.0000
2023-04-02T12:34:35.380Z,13172.3848
2023-04-02T12:35:37.316Z,13171.7695
2023-04-02T12:36:39.206Z,13171.1543
2023-04-02T12:37:41.149Z,13175.0771
2023-04-02T12:38:43.008Z,13174.8457
2023-04-02T12:39:44.932Z,13175.0771
2023-04-02T12:40:46.870Z,13180.0771
2023-04-02T12:41:48.755Z,13176.2305
2023-04-02T12:42:50.636Z,13172.8457
2023-04-02T12:43:52.568Z,13171.6152
2023-04-02T12:44:54.461Z,13166.6924
2023-04-02T12:45:56.414Z,13166.9229
2023-04-02T12:46:58.285Z,13164.3848
2023-04-02T12:48:00.241Z,13165.0771
2023-04-02T12:49:02.083Z,13163.4619
2023-04-02T12:50:04.020Z,13166.2305
2023-04-02T12:51:05.927Z,13159.4619
2023-04-02T12:52:07.876Z,13156.7695
2023-04-02T12:53:09.712Z,13151.3848
2023-04-02T12:54:11.669Z,13133.7695
2023-04-02T12:55:13.582Z,13126.8457
2023-04-02T12:56:15.509Z,13126.6924
2023-04-02T12:57:17.391Z,13115.3076
2023-04-02T12:58:19.269Z,13120.7695
2023-04-02T12:59:21.156Z,13119.9229
2023-04-02T13:00:23.101Z,13114.7695
2023-04-02T13:01:25.603Z,13121.3848
2023-04-02T13:02:27.120Z,13116.5381
2023-04-02T13:03:29.239Z,13120.1543
2023-04-02T13:04:30.770Z,13120.3076
2023-04-02T13:05:32.694Z,13119.4619
2023-04-02T13:06:34.604Z,13119.3076
2023-04-02T13:07:36.537Z,13124.6924
2023-04-02T13:08:38.407Z,13117.6152
2023-04-02T13:09:40.309Z,13119.6924
2023-04-02T13:10:42.244Z,13122.0000
2023-04-02T13:11:44.145Z,13124.9229
2023-04-02T13:12:46.073Z,13134.3848
2023-04-02T13:13:47.922Z,13135.0771
2023-04-02T13:14:49.853Z,13142.7695
2023-04-02T13:15:51.798Z,13144.0771
2023-04-02T13:16:53.706Z,13145.6152
2023-04-02T13:17:55.613Z,13139.3848
2023-04-02T13:18:57.486Z,13142.5381
2023-04-02T13:19:59.483Z,13140.5381
2023-04-02T13:21:01.295Z,13137.9229
2023-04-02T13:22:03.219Z,13138.3076
2023-04-02T13:23:05.121Z,13143.7695
2023-04-02T13:24:07.028Z,13143.2305
2023-04-02T13:25:08.922Z,13144.2305
2023-04-02T13:26:10.812Z,13148.6152
2023-04-02T13:27:12.746Z,13156.6152
2023-04-02T13:28:14.640Z,13162.0000
2023-04-02T13:29:16.559Z,13161.8457
2023-04-02T13:30:18.456Z,13151.7695
2023-04-02T13:31:20.416Z,13157.5381
2023-04-02T13:32:22.295Z,13157.5381
2023-04-02T13:33:24.212Z,13157.6924
2023-04-02T13:34:26.076Z,13160.3848
2023-04-02T13:35:28.003Z,13160.0771
2023-04-02T13:36:29.891Z,13158.2305
2023-04-02T13:37:31.859Z,13164.0771
2023-04-02T13:38:33.693Z,13161.6924
2023-04-02T13:39:35.713Z,13159.7695
2023-04-02T13:40:37.833Z,13161.4619
2023-04-02T13:41:39.427Z,13158.3848
2023-04-02T13:42:41.349Z,13160.1543
2023-04-02T13:43:43.247Z,13163.6924
2023-04-02T13:44:45.126Z,13164.5381
2023-04-02T13:45:47.125Z,13161.1543
2023-04-02T13:46:48.934Z,13159.7695
2023-04-02T13:47:50.906Z,13158.8457
2023-04-02T13:48:52.778Z,13162.9229
2023-04-02T13:49:54.684Z,13162.9229
2023-04-02T13:50:56.586Z,13158.5381
2023-04-02T13:51:58.574Z,13163.6152
2023-04-02T13:53:01.015Z,13163.6924
2023-04-02T13:54:06.759Z,13162.9229
2023-04-02T13:55:04.339Z,13161.1543
2023-04-02T13:56:06.098Z,13162.0000
2023-04-02T13:57:08.004Z,13159.3076
2023-04-02T13:58:09.902Z,13162.3076
2023-04-02T13:59:11.797Z,13168.5381
2023-04-02T14:00:13.752Z,13163.6924
2023-04-02T14:01:15.691Z,13161.3848
2023-04-02T14:02:17.766Z,13162.8457
2023-04-02T14:03:19.493Z,13167.9229
2023-04-02T14:04:21.453Z,13161.2305
2023-04-02T14:05:23.249Z,13162.1543
2023-04-02T14:06:25.518Z,13158.8457
2023-04-02T14:07:27.080Z,13158.3076
2023-04-02T14:08:30.249Z,13156.0771
2023-04-02T14:09:30.883Z,13155.1543
2023-04-02T14:10:34.618Z,13154.3076
2023-04-02T14:11:34.699Z,13158.3076
2023-04-02T14:12:36.655Z,13153.0000
2023-04-02T14:13:38.508Z,13153.7695
2023-04-02T14:14:40.772Z,13155.3076
2023-04-02T14:15:42.338Z,13153.4619
2023-04-02T14:16:44.286Z,13154.4619
2023-04-02T14:17:46.199Z,13154.6152
2023-04-02T14:18:48.058Z,13153.2305
2023-04-02T14:19:49.954Z,13154.0000
2023-04-02T14:20:51.930Z,13141.3076
2023-04-02T14:21:54.331Z,13144.1543
2023-04-02T14:22:55.705Z,13145.4619
2023-04-02T14:23:57.578Z,13142.1543
2023-04-02T14:24:59.522Z,13145.3076
2023-04-02T14:26:01.416Z,13143.8457
2023-04-02T14:27:04.296Z,13146.7695
2023-04-02T14:28:05.275Z,13143.3848
2023-04-02T14:29:07.165Z,13146.4619
2023-04-02T14:30:09.089Z,13151.1543
2023-04-02T14:31:11.021Z,13146.3076
2023-04-02T14:32:14.404Z,13144.6924
2023-04-02T14:33:14.926Z,13144.9229
2023-04-02T14:34:16.665Z,13147.3848
2023-04-02T14:35:18.611Z,13145.6924
2023-04-02T14:36:20.459Z,13144.0000
2023-04-02T14:37:22.400Z,13143.0771
2023-04-02T14:38:24.472Z,13137.5381
2023-04-02T14:39:26.252Z,13143.1543
2023-04-02T14:40:28.126Z,13140.0771
2023-04-02T14:41:30.077Z,13140.2305
2023-04-02T14:42:32.009Z,13139.0771
2023-04-02T14:43:33.899Z,13136.6152
2023-04-02T14:44:35.761Z,13139.7695
2023-04-02T14:45:37.720Z,13138.6924
2023-04-02T14:46:39.657Z,13138.0771
2023-04-02T14:47:41.542Z,13139.2305
2023-04-02T14:48:43.426Z,13140.3076
2023-04-02T14:49:45.374Z,13138.9229
2023-04-02T14:50:47.726Z,13141.1543
2023-04-02T14:51:49.117Z,13144.4619
2023-04-02T14:52:51.055Z,13146.0771
2023-04-02T14:53:53.006Z,13145.3076
2023-04-02T14:54:54.976Z,13148.6924
2023-04-02T14:55:56.754Z,13143.6924
2023-04-02T14:56:58.783Z,13145.4619
2023-04-02T14:58:00.597Z,13147.4619
2023-04-02T14:59:03.508Z,13147.1543
2023-04-02T15:00:04.405Z,13151.0000
2023-04-02T15:01:06.317Z,13144.4619
2023-04-02T15:02:08.248Z,13145.7695
2023-04-02T15:03:10.191Z,13146.0771
2023-04-02T15:04:12.015Z,13145.0000
2023-04-02T15:05:13.945Z,13150.7695
2023-04-02T15:06:15.880Z,13141.5381
2023-04-02T15:07:17.778Z,13143.0771
2023-04-02T15:08:19.675Z,13143.2305
2023-04-02T15:09:21.591Z,13145.7695
2023-04-02T15:10:23.476Z,13142.6152
2023-04-02T15:11:27.576Z,13144.4619
2023-04-02T15:12:27.268Z,13139.6152
2023-04-02T15:13:29.188Z,13147.4619
2023-04-02T15:14:31.095Z,13148.1543
2023-04-02T15:15:39.278Z,13147.7695
2023-04-02T15:16:35.772Z,13150.0000
2023-04-02T15:17:36.850Z,13147.6152
2023-04-02T15:18:39.743Z,13153.9229
2023-04-02T15:19:40.679Z,13154.3076
2023-04-02T15:20:42.696Z,13146.3848
2023-04-02T15:21:55.621Z,13141.1543
2023-04-02T15:22:46.379Z,13139.3848
2023-04-02T15:23:48.447Z,13146.6924
2023-04-02T15:24:50.195Z,13141.3848
2023-04-02T15:25:52.068Z,13145.4619
2023-04-02T15:26:53.995Z,13145.0771
2023-04-02T15:27:55.856Z,13148.0000
2023-04-02T15:28:57.827Z,13145.4619
2023-04-02T15:29:59.684Z,13143.0771
2023-04-02T15:31:01.612Z,13138.0771
2023-04-02T15:32:03.508Z,13142.4619
2023-04-02T15:33:05.455Z,13144.6152
2023-04-02T15:34:07.303Z,13146.3076
2023-04-02T15:35:09.227Z,13149.2305
2023-04-02T15:36:11.168Z,13143.0000
2023-04-02T15:37:13.100Z,13142.4619
2023-04-02T15:38:14.940Z,13142.8457
2023-04-02T15:39:16.872Z,13144.6924
2023-04-02T15:40:18.740Z,13141.7695
2023-04-02T15:41:22.975Z,13142.1543
2023-04-02T15:42:22.583Z,13144.0000
2023-04-02T15:43:24.492Z,13142.3848
2023-04-02T15:44:26.376Z,13148.3848
2023-04-02T15:45:29.582Z,13144.2305
2023-04-02T15:46:30.299Z,13144.0771
2023-04-02T15:47:32.622Z,13143.9229
2023-04-02T15:48:34.162Z,13147.1543
2023-04-02T15:49:35.962Z,13148.7695
2023-04-02T15:50:38.382Z,13147.6152
2023-04-02T15:51:39.734Z,13154.5381
2023-04-02T15:52:41.641Z,13156.3848
2023-04-02T15:53:43.566Z,13153.8457
2023-04-02T15:54:45.473Z,13151.5381
2023-04-02T15:55:47.386Z,13145.2305
2023-04-02T15:56:49.355Z,13149.5381
2023-04-02T15:57:51.183Z,13150.8457
2023-04-02T15:58:53.088Z,13152.6924
2023-04-02T15:59:55.077Z,13150.1543
2023-04-02T16:00:56.933Z,13149.6924
2023-04-02T16:01:58.860Z,13151.5381
2023-04-02T16:03:00.756Z,13145.6152
2023-04-02T16:04:02.720Z,13149.2305
2023-04-02T16:05:04.540Z,13152.9229
2023-04-02T16:06:07.268Z,13150.0771
2023-04-02T16:07:08.474Z,13149.4619
2023-04-02T16:08:10.431Z,13153.9229
2023-04-02T16:09:12.846Z,13154.6924
2023-04-02T16:10:14.190Z,13151.9229
2023-04-02T16:11:16.158Z,13155.0771
2023-04-02T16:12:17.986Z,13157.3076
2023-04-02T16:13:19.781Z,13161.6924
2023-04-02T16:14:21.767Z,13157.0771
2023-04-02T16:15:24.035Z,13160.6152
2023-04-02T16:16:25.814Z,13159.9229
2023-04-02T16:17:27.652Z,13167.4619
2023-04-02T16:18:29.385Z,13162.2305
2023-04-02T16:19:31.289Z,13167.1543
2023-04-02T16:20:33.453Z,13167.2305
2023-04-02T16:21:35.218Z,13165.4619
2023-04-02T16:22:38.027Z,13162.7695
2023-04-02T16:23:39.081Z,13169.0000
2023-04-02T16:24:40.827Z,13164.0000
2023-04-02T16:25:42.826Z,13161.0000
2023-04-02T16:26:44.651Z,13156.3848
2023-04-02T16:27:46.668Z,13162.0000
2023-04-02T16:28:48.478Z,13166.6924
2023-04-02T16:29:54.201Z,13166.6152
2023-04-02T16:30:52.331Z,13166.2305
2023-04-02T16:31:54.196Z,13166.8457
2023-04-02T16:32:56.227Z,13169.4619
2023-04-02T16:33:58.714Z,13170.3076
2023-04-02T16:35:15.232Z,13170.2305
2023-04-02T16:36:02.894Z,13173.8457
2023-04-02T16:37:03.724Z,13171.8457
2023-04-02T16:38:05.597Z,13170.1543
2023-04-02T16:39:07.536Z,13169.2305
2023-04-02T16:40:09.447Z,13166.1543
2023-04-02T16:41:11.397Z,13162.4619
2023-04-02T16:42:13.227Z,13163.6152
2023-04-02T16:43:15.161Z,13164.3076
2023-04-02T16:44:17.040Z,13168.6152
2023-04-02T16:45:19.356Z,13165.3848
2023-04-02T16:46:31.682Z,13166.9229
2023-04-02T16:47:22.830Z,13167.3076
2023-04-02T16:48:24.685Z,13160.0771
2023-04-02T16:49:26.617Z,13161.8457
2023-04-02T16:50:28.479Z,13164.9229
2023-04-02T16:51:30.403Z,13166.6152
2023-04-02T16:52:32.292Z,13165.5381
2023-04-02T16:53:34.228Z,13166.6924
2023-04-02T16:54:36.121Z,13159.6924
2023-04-02T16:55:38.014Z,13155.6924
2023-04-02T16:56:39.930Z,13159.7695
2023-04-02T16:57:41.843Z,13153.6924
2023-04-02T16:58:43.762Z,13156.3848
2023-04-02T16:59:45.681Z,13157.0000
2023-04-02T17:00:47.567Z,13160.0771
2023-04-02T17:01:49.490Z,13154.6924
2023-04-02T17:02:51.410Z,13159.9229
2023-04-02T17:03:53.557Z,13157.4619
2023-04-02T17:04:55.171Z,13155.4619
2023-04-02T17:05:57.112Z,13158.6924
2023-04-02T17:06:59.278Z,13156.6152
2023-04-02T17:08:00.900Z,13155.4619
2023-04-02T17:09:02.801Z,13156.9229
2023-04-02T17:10:04.693Z,13155.3848
2023-04-02T17:11:06.727Z,13155.5381
2023-04-02T17:12:08.595Z,13154.3076
2023-04-02T17:13:10.456Z,13152.9229
2023-04-02T17:14:12.395Z,13163.0000
2023-04-02T17:15:20.951Z,13152.6924
2023-04-02T17:16:16.154Z,13148.3076
2023-04-02T17:17:18.057Z,13149.2305
2023-04-02T17:18:20.162Z,13149.9229
2023-04-02T17:19:21.880Z,13146.4619
2023-04-02T17:20:23.749Z,13149.6924
2023-04-02T17:21:25.680Z,13147.4619
2023-04-02T17:22:27.571Z,13148.0000
2023-04-02T17:23:29.488Z,13147.8457
2023-04-02T17:24:31.374Z,13148.0771
2023-04-02T17:25:33.301Z,13146.6924
2023-04-02T17:26:35.190Z,13148.7695
2023-04-02T17:27:37.123Z,13149.0000
2023-04-02T17:28:39.011Z,13147.6152
2023-04-02T17:29:40.970Z,13146.1543
2023-04-02T17:30:42.809Z,13132.8457
2023-04-02T17:31:44.770Z,13149.9229
2023-04-02T17:32:46.721Z,13148.5381
2023-04-02T17:33:48.557Z,13144.0771
2023-04-02T17:34:50.436Z,13143.5381
2023-04-02T17:35:52.392Z,13150.0771
2023-04-02T17:36:55.247Z,13149.0771
2023-04-02T17:37:56.195Z,13143.9229
2023-04-02T17:38:58.191Z,13144.6152
2023-04-02T17:39:59.975Z,13145.2305
2023-04-02T17:41:01.856Z,13140.2305
2023-04-02T17:42:04.035Z,13136.3848
2023-04-02T17:43:05.723Z,13136.7695
2023-04-02T17:44:07.790Z,13138.6924
2023-04-02T17:45:09.497Z,13143.4619
2023-04-02T17:46:11.551Z,13142.0771
2023-04-02T17:47:14.385Z,13135.1543
2023-04-02T17:48:16.370Z,13139.4619
2023-04-02T17:49:17.317Z,13145.0000
2023-04-02T17:50:19.078Z,13144.1543
2023-04-02T17:51:20.982Z,13136.8457
2023-04-02T17:52:22.915Z,13135.6924
2023-04-02T17:53:24.760Z,13135.0771
2023-04-02T17:54:26.898Z,13136.6924
2023-04-02T17:55:28.561Z,13134.9229
2023-04-02T17:56:30.988Z,13129.2305
2023-04-02T17:57:32.861Z,13125.6152
2023-04-02T17:58:34.299Z,13127.3076
2023-04-02T17:59:36.205Z,13131.6924
2023-04-02T18:00:38.821Z,13128.3848
2023-04-02T18:01:40.098Z,13123.9229
2023-04-02T18:02:42.041Z,13124.6152
2023-04-02T18:03:43.867Z,13123.4619
2023-04-02T18:04:45.894Z,13115.3848
2023-04-02T18:05:47.757Z,13120.0000
2023-04-02T18:06:49.550Z,13115.8457
2023-04-02T18:07:51.599Z,13117.2305
2023-04-02T18:08:53.343Z,13121.0771
2023-04-02T18:09:55.227Z,13118.3848
2023-04-02T18:10:57.206Z,13117.2305
2023-04-02T18:12:00.534Z,13111.7695
2023-04-02T18:23:41.598Z,0.0000
2023-04-02T18:24:43.518Z,0.0000
